Time;durP1;ratioP1;P1;durP2;ratioP2;P2;SDS_P1;SDS_P2;PMS_P1;PMS_P2;Temp;Humidity;BMP_temperature;BMP_pressure;BME280_temperature;BME280_humidity;BME280_pressure;Samples;Min_cycle;Max_cycle;Signal;HPM_P1;HPM_P2
2021/11/27 00:00:42;;;;;;;;;5.75;2.00;;;;;7.79;71.17;98653.81;5038581;28;46065;-79
2021/11/27 00:03:07;;;;;;;;;9.25;3.00;;;;;7.77;71.07;98661.69;5021208;28;45542;-83
2021/11/27 00:05:34;;;;;;;;;4.00;4.00;;;;;7.69;71.24;98633.81;5026567;28;49920;-83
2021/11/27 00:08:00;;;;;;;;;3.00;3.00;;;;;7.71;71.40;98659.16;5021520;28;45509;-81
2021/11/27 00:10:26;;;;;;;;;7.00;5.00;;;;;7.73;70.99;98660.03;5039440;28;45291;-80
2021/11/27 00:12:52;;;;;;;;;6.50;5.00;;;;;7.67;71.30;98649.59;5019111;28;45528;-81
2021/11/27 00:15:18;;;;;;;;;5.50;5.50;;;;;7.72;71.10;98665.28;5038102;28;54790;-79
2021/11/27 00:17:43;;;;;;;;;3.50;3.00;;;;;7.71;71.31;98653.91;5037445;28;45741;-80
2021/11/27 00:20:11;;;;;;;;;5.00;2.50;;;;;7.70;71.21;98651.28;5034306;28;61668;-81
2021/11/27 00:22:37;;;;;;;;;5.00;2.00;;;;;7.70;71.25;98659.19;5037543;28;45553;-80
2021/11/27 00:25:03;;;;;;;;;3.50;2.50;;;;;7.67;71.14;98648.69;5035201;28;45685;-81
2021/11/27 00:27:28;;;;;;;;;3.75;3.75;;;;;7.70;71.14;98662.66;5036396;28;45612;-80
2021/11/27 00:29:55;;;;;;;;;4.50;2.50;;;;;7.69;70.89;98657.44;5022249;28;47440;-80
2021/11/27 00:32:21;;;;;;;;;3.00;3.00;;;;;7.70;70.89;98651.28;5003180;28;45566;-80
2021/11/27 00:34:46;;;;;;;;;4.25;2.25;;;;;7.66;70.95;98645.19;5036937;28;45492;-81
2021/11/27 00:37:12;;;;;;;;;3.00;2.00;;;;;7.72;70.68;98658.25;5037836;28;45453;-82
2021/11/27 00:39:37;;;;;;;;;4.75;2.50;;;;;7.68;70.73;98653.09;5019175;28;47576;-81
2021/11/27 00:42:03;;;;;;;;;3.50;2.00;;;;;7.67;70.52;98657.47;5019199;28;63047;-82
2021/11/27 00:44:28;;;;;;;;;3.50;2.50;;;;;7.74;70.65;98664.38;5014107;28;45548;-82
2021/11/27 00:46:54;;;;;;;;;2.00;2.00;;;;;7.75;70.52;98660.84;5015951;28;45913;-84
2021/11/27 00:49:20;;;;;;;;;0.75;0.75;;;;;7.80;70.14;98666.91;5000127;28;45557;-82
2021/11/27 00:51:45;;;;;;;;;1.00;1.00;;;;;7.81;70.30;98666.03;5003282;28;45813;-83
2021/11/27 00:54:11;;;;;;;;;3.00;2.00;;;;;7.81;70.21;98666.03;4984333;28;45476;-82
2021/11/27 00:56:36;;;;;;;;;2.75;1.25;;;;;7.78;70.03;98659.97;5021949;28;45649;-83
2021/11/27 00:59:02;;;;;;;;;6.25;2.00;;;;;7.81;69.16;98670.41;5041496;28;46648;-83
2021/11/27 01:01:29;;;;;;;;;5.50;1.00;;;;;7.73;69.28;98660.03;5000327;28;45541;-82
2021/11/27 01:03:54;;;;;;;;;0.25;0.25;;;;;7.75;68.70;98665.25;5041782;28;45562;-82
2021/11/27 01:06:22;;;;;;;;;2.00;0.50;;;;;7.73;68.89;98654.78;5018133;28;45506;-83
2021/11/27 01:08:51;;;;;;;;;0.75;0.00;;;;;7.71;68.58;98643.38;5008433;28;48326;-82
2021/11/27 01:11:17;;;;;;;;;0.00;0.00;;;;;7.63;68.23;98645.25;5018165;28;45570;-82
2021/11/27 01:13:44;;;;;;;;;0.00;0.00;;;;;7.49;68.17;98634.03;5019880;28;45543;-82
2021/11/27 01:16:10;;;;;;;;;0.00;0.00;;;;;7.47;68.08;98643.72;5038181;28;45938;-84
2021/11/27 01:18:38;;;;;;;;;0.00;0.00;;;;;7.30;67.72;98618.53;5019351;28;45789;-82
2021/11/27 01:21:07;;;;;;;;;0.00;0.00;;;;;7.42;67.34;98648.16;5020201;28;45450;-83
2021/11/27 01:23:33;;;;;;;;;0.00;0.00;;;;;7.40;67.04;98644.66;5021719;28;45229;-82
2021/11/27 01:25:58;;;;;;;;;2.00;0.00;;;;;7.34;65.58;98643.81;5018719;28;45582;-82
2021/11/27 01:28:24;;;;;;;;;0.00;0.00;;;;;7.31;66.85;98627.25;5044980;28;63960;-82
2021/11/27 01:30:52;;;;;;;;;1.00;0.00;;;;;7.25;66.34;98635.22;5003938;28;59058;-82
2021/11/27 01:33:18;;;;;;;;;0.00;0.00;;;;;7.21;66.37;98641.38;5018436;28;45485;-82
2021/11/27 01:35:43;;;;;;;;;0.00;0.00;;;;;7.18;66.58;98644.88;5022970;28;45667;-83
2021/11/27 01:38:09;;;;;;;;;0.00;0.00;;;;;7.19;66.91;98637.88;4986796;28;47987;-81
2021/11/27 01:40:34;;;;;;;;;0.00;0.00;;;;;7.19;67.06;98640.50;5004248;28;45563;-82
2021/11/27 01:43:00;;;;;;;;;1.00;0.00;;;;;7.15;66.87;98630.94;4983757;28;45581;-82
2021/11/27 01:45:26;;;;;;;;;2.00;0.75;;;;;7.16;67.02;98635.31;5003530;28;45326;-82
2021/11/27 01:47:53;;;;;;;;;1.75;0.00;;;;;7.13;66.86;98641.44;5003302;28;47086;-83
2021/11/27 01:50:20;;;;;;;;;2.00;0.00;;;;;7.08;67.19;98632.75;5000251;28;45603;-83
2021/11/27 01:52:46;;;;;;;;;0.75;0.00;;;;;7.00;67.08;98624.09;5038859;28;45266;-83
2021/11/27 01:55:11;;;;;;;;;0.00;0.00;;;;;6.95;67.17;98631.13;5032855;28;45396;-83
2021/11/27 01:57:37;;;;;;;;;1.00;0.00;;;;;6.94;67.73;98626.78;5051017;28;45844;-82
2021/11/27 02:00:05;;;;;;;;;2.00;0.00;;;;;6.95;67.63;98625.91;5036623;28;45480;-83
2021/11/27 02:02:31;;;;;;;;;1.50;0.00;;;;;6.91;67.91;98622.41;5018128;28;45500;-82
2021/11/27 02:04:56;;;;;;;;;1.50;0.25;;;;;6.90;67.82;98625.06;5010970;28;45257;-82
2021/11/27 02:07:22;;;;;;;;;2.00;0.50;;;;;6.86;67.86;98621.59;5002187;28;46309;-82
2021/11/27 02:09:47;;;;;;;;;1.00;1.00;;;;;6.91;67.88;98625.03;5037016;28;45374;-82
2021/11/27 02:12:13;;;;;;;;;1.00;0.00;;;;;6.90;68.04;98628.56;5019754;28;45558;-82
2021/11/27 02:14:39;;;;;;;;;2.00;0.00;;;;;6.90;67.98;98630.31;5041851;28;45319;-81
2021/11/27 02:17:04;;;;;;;;;3.75;0.00;;;;;6.87;68.04;98625.09;5008092;28;46271;-82
2021/11/27 02:19:30;;;;;;;;;2.00;0.25;;;;;6.85;67.98;98629.47;5002756;28;45274;-82
2021/11/27 02:21:55;;;;;;;;;1.50;0.00;;;;;6.78;67.97;98615.56;5036660;28;59249;-82
2021/11/27 02:24:21;;;;;;;;;2.00;0.00;;;;;6.78;67.92;98605.94;5004568;28;45660;-84
2021/11/27 02:26:47;;;;;;;;;2.00;0.00;;;;;6.78;67.95;98605.94;5012305;28;47567;-82
2021/11/27 02:29:15;;;;;;;;;4.00;0.00;;;;;6.77;68.04;98609.47;5019086;28;45453;-82
2021/11/27 02:31:40;;;;;;;;;1.00;0.00;;;;;6.78;68.38;98612.94;5031753;28;45516;-83
2021/11/27 02:34:06;;;;;;;;;0.00;0.00;;;;;6.74;68.10;98603.34;5035655;28;45472;-82
2021/11/27 02:36:31;;;;;;;;;0.75;0.75;;;;;6.66;68.08;98606.06;5028027;28;46385;-82
2021/11/27 02:38:57;;;;;;;;;2.00;0.00;;;;;6.59;68.15;98588.63;5002184;28;46170;-82
2021/11/27 02:41:22;;;;;;;;;1.00;0.00;;;;;6.62;67.99;98596.47;5018727;28;45276;-82
2021/11/27 02:43:48;;;;;;;;;3.50;1.00;;;;;6.59;67.89;98593.00;5001599;28;57598;-82
2021/11/27 02:46:13;;;;;;;;;0.00;0.00;;;;;6.50;67.94;98584.38;5019057;28;47513;-82
2021/11/27 02:48:38;;;;;;;;;0.00;0.00;;;;;6.47;68.15;98575.66;5001929;28;60573;-82
2021/11/27 02:51:04;;;;;;;;;0.00;0.00;;;;;6.50;67.88;98586.97;5037127;28;45730;-82
2021/11/27 02:53:29;;;;;;;;;0.00;0.00;;;;;6.48;68.11;98582.63;5017860;28;60516;-82
2021/11/27 02:55:54;;;;;;;;;0.00;0.00;;;;;6.46;67.91;98569.53;5018575;28;62082;-81
2021/11/27 02:58:20;;;;;;;;;2.75;0.00;;;;;6.40;68.02;98576.59;5032303;28;59510;-82
2021/11/27 03:00:45;;;;;;;;;0.00;0.00;;;;;6.44;67.88;98565.16;5019258;28;45472;-82
2021/11/27 03:03:12;;;;;;;;;3.00;0.00;;;;;6.39;67.91;98570.47;5039289;28;45291;-82
2021/11/27 03:05:37;;;;;;;;;0.00;0.00;;;;;6.38;68.14;98549.50;5017836;28;46077;-82
2021/11/27 03:08:02;;;;;;;;;1.00;0.00;;;;;6.38;68.22;98555.63;5018351;28;45560;-82
2021/11/27 03:10:28;;;;;;;;;0.00;0.00;;;;;6.35;68.49;98555.66;5032276;28;45492;-83
2021/11/27 03:12:53;;;;;;;;;0.00;0.00;;;;;6.32;68.31;98560.03;5049570;28;51808;-83
2021/11/27 03:15:19;;;;;;;;;1.00;0.00;;;;;6.30;68.09;98565.31;5029950;28;47448;-84
2021/11/27 03:17:44;;;;;;;;;0.00;0.00;;;;;6.29;68.17;98568.81;4986059;28;58814;-81
2021/11/27 03:20:10;;;;;;;;;0.00;0.00;;;;;6.25;68.35;98567.97;5036637;28;45457;-83
2021/11/27 03:22:36;;;;;;;;;0.00;0.00;;;;;6.22;68.36;98564.50;5018728;28;45355;-83
2021/11/27 03:25:01;;;;;;;;;1.00;0.00;;;;;6.22;68.22;98551.38;5018074;28;61361;-82
2021/11/27 03:27:27;;;;;;;;;2.00;0.00;;;;;6.21;68.09;98540.03;5001665;28;45384;-82
2021/11/27 03:29:52;;;;;;;;;0.00;0.00;;;;;6.23;68.36;98561.88;5034801;28;56274;-82
2021/11/27 03:32:18;;;;;;;;;0.00;0.00;;;;;6.23;68.07;98553.13;5018269;28;45710;-82
2021/11/27 03:34:43;;;;;;;;;1.50;0.00;;;;;6.24;68.33;98547.88;5018066;28;45387;-82
2021/11/27 03:37:09;;;;;;;;;0.00;0.00;;;;;6.18;68.10;98532.22;5002727;28;45240;-83
2021/11/27 03:39:34;;;;;;;;;1.00;0.00;;;;;6.21;68.20;98526.94;5002198;28;45418;-83
2021/11/27 03:42:01;;;;;;;;;0.00;0.00;;;;;6.23;67.92;98530.44;5011347;28;45504;-82
2021/11/27 03:44:26;;;;;;;;;1.75;0.00;;;;;6.18;67.32;98521.75;5036524;28;48358;-83
2021/11/27 03:46:51;;;;;;;;;0.00;0.00;;;;;6.10;67.77;98509.56;5001782;28;45532;-82
2021/11/27 03:49:22;;;;;;;;;1.00;0.00;;;;;6.10;67.56;98501.72;5000906;28;45917;-82
2021/11/27 03:51:47;;;;;;;;;1.25;0.00;;;;;6.10;67.80;98507.81;5001921;28;45557;-82
2021/11/27 03:54:13;;;;;;;;;1.50;1.00;;;;;6.09;67.85;98506.09;4984327;28;69098;-81
2021/11/27 03:56:38;;;;;;;;;0.00;0.00;;;;;6.11;67.82;98517.41;5016940;28;66395;-82
2021/11/27 03:59:04;;;;;;;;;0.00;0.00;;;;;6.09;67.72;98516.56;5000383;28;52198;-82
2021/11/27 04:01:29;;;;;;;;;0.00;0.00;;;;;6.07;67.67;98494.75;5025915;28;45342;-82
2021/11/27 04:03:55;;;;;;;;;0.00;0.00;;;;;6.03;67.65;98506.16;5035304;28;45993;-83
2021/11/27 04:06:21;;;;;;;;;1.00;0.00;;;;;6.05;68.00;98493.91;5033912;28;45634;-82
2021/11/27 04:08:46;;;;;;;;;0.00;0.00;;;;;6.05;67.86;98480.78;4998880;28;45379;-83
2021/11/27 04:11:12;;;;;;;;;0.75;0.00;;;;;6.06;67.55;98471.19;5033900;28;45448;-83
2021/11/27 04:13:37;;;;;;;;;0.75;0.00;;;;;6.06;67.68;98471.19;5024552;28;48842;-82
2021/11/27 04:16:03;;;;;;;;;0.00;0.00;;;;;6.01;67.60;98469.47;5027618;28;45547;-83
2021/11/27 04:18:29;;;;;;;;;1.75;0.00;;;;;6.04;67.18;98461.59;5017870;28;45394;-83
2021/11/27 04:20:54;;;;;;;;;1.00;1.00;;;;;6.04;67.52;98458.97;5018178;28;45414;-82
2021/11/27 04:23:20;;;;;;;;;0.00;0.00;;;;;6.05;67.64;98462.47;5000913;28;45668;-83
2021/11/27 04:25:45;;;;;;;;;0.00;0.00;;;;;6.04;67.31;98453.72;5003916;28;45564;-83
2021/11/27 04:28:11;;;;;;;;;0.00;0.00;;;;;6.11;67.23;98459.78;5039922;28;50424;-82
2021/11/27 04:30:36;;;;;;;;;1.00;0.00;;;;;6.10;67.63;98458.06;5029625;28;45351;-82
2021/11/27 04:33:02;;;;;;;;;0.25;0.00;;;;;6.15;67.45;98465.88;5011354;28;47636;-82
2021/11/27 04:35:27;;;;;;;;;0.00;0.00;;;;;6.12;67.45;98464.13;5004110;28;45477;-83
2021/11/27 04:37:53;;;;;;;;;0.00;0.00;;;;;6.08;67.23;98448.47;5038592;28;45441;-82
2021/11/27 04:40:19;;;;;;;;;0.25;0.00;;;;;6.15;67.31;98469.34;4989280;28;45648;-82
2021/11/27 04:42:44;;;;;;;;;1.00;0.00;;;;;6.15;66.79;98466.72;5013902;28;45542;-82
2021/11/27 04:45:09;;;;;;;;;0.00;0.00;;;;;6.18;66.86;98476.31;5037845;28;45267;-82
2021/11/27 04:47:35;;;;;;;;;1.00;0.00;;;;;6.19;67.06;98480.69;5023300;28;45671;-82
2021/11/27 04:50:00;;;;;;;;;0.00;0.00;;;;;6.20;67.03;98483.28;5038718;28;45295;-82
2021/11/27 04:52:26;;;;;;;;;1.25;0.00;;;;;6.21;66.95;98471.91;5004165;28;47453;-82
2021/11/27 04:54:51;;;;;;;;;4.00;0.00;;;;;6.20;66.67;98472.81;5003700;28;58830;-83
2021/11/27 04:57:17;;;;;;;;;1.00;0.00;;;;;6.19;66.58;98481.56;5038535;28;45348;-83
2021/11/27 04:59:43;;;;;;;;;0.00;0.00;;;;;6.20;66.40;98485.03;5021710;28;45295;-81
2021/11/27 05:02:08;;;;;;;;;0.00;0.00;;;;;6.15;66.60;98464.13;5020471;28;47565;-82
2021/11/27 05:04:35;;;;;;;;;0.00;0.00;;;;;6.15;66.62;98471.09;5033697;28;60589;-83
2021/11/27 05:07:00;;;;;;;;;1.00;0.00;;;;;6.19;66.56;98463.22;5019853;28;45401;-82
2021/11/27 05:09:26;;;;;;;;;1.00;0.00;;;;;6.22;66.65;98463.16;5019474;28;57001;-83
2021/11/27 05:11:51;;;;;;;;;1.00;0.00;;;;;6.24;66.34;98468.41;5020097;28;45259;-82
2021/11/27 05:14:16;;;;;;;;;0.00;0.00;;;;;6.24;66.11;98457.94;5038002;28;45434;-82
2021/11/27 05:16:42;;;;;;;;;0.00;0.00;;;;;6.27;66.21;98450.88;5037513;28;51725;-83
2021/11/27 05:19:07;;;;;;;;;0.00;0.00;;;;;6.32;66.29;98460.47;5042392;28;55812;-82
2021/11/27 05:21:33;;;;;;;;;0.50;0.00;;;;;6.33;66.17;98433.38;5019993;28;55352;-83
2021/11/27 05:23:58;;;;;;;;;0.00;0.00;;;;;6.38;66.41;98442.03;5020084;28;57205;-83
2021/11/27 05:26:23;;;;;;;;;0.00;0.00;;;;;6.42;66.13;98438.50;5038235;28;45551;-81
2021/11/27 05:28:49;;;;;;;;;0.00;0.00;;;;;6.44;65.96;98431.50;5020705;28;45542;-82
2021/11/27 05:31:16;;;;;;;;;0.00;0.00;;;;;6.46;65.81;98414.00;5011910;28;45705;-84
2021/11/27 05:36:19;;;;;;;;;0.00;0.00;;;;;6.49;65.91;98416.59;5036812;28;45376;-81
2021/11/27 05:38:45;;;;;;;;;0.00;0.00;;;;;6.56;66.44;98420.88;5020693;28;45604;-82
2021/11/27 05:41:11;;;;;;;;;0.50;0.00;;;;;6.60;65.88;98432.19;5032527;28;47869;-82
2021/11/27 05:43:36;;;;;;;;;0.00;0.00;;;;;6.60;65.88;98413.84;5008888;28;45328;-82
2021/11/27 05:46:02;;;;;;;;;0.00;0.00;;;;;6.56;65.60;98407.78;5019551;28;45390;-83
2021/11/27 05:48:27;;;;;;;;;0.00;0.00;;;;;6.65;65.80;98415.50;5019627;28;45394;-83
2021/11/27 05:50:53;;;;;;;;;0.00;0.00;;;;;6.66;65.66;98414.66;5041729;28;68994;-84
2021/11/27 05:53:19;;;;;;;;;0.00;0.00;;;;;6.67;65.37;98424.25;5008569;28;62261;-82
2021/11/27 05:55:47;;;;;;;;;0.50;0.00;;;;;6.68;65.43;98419.88;5037759;28;45282;-83
2021/11/27 05:58:17;;;;;;;;;0.00;0.00;;;;;6.66;65.65;98417.28;4988514;28;45608;-83
2021/11/27 06:00:42;;;;;;;;;0.00;0.00;;;;;6.67;65.82;98416.38;5003476;28;46148;-83
2021/11/27 06:03:08;;;;;;;;;3.25;0.00;;;;;6.71;65.34;98419.81;5033981;28;47150;-82
2021/11/27 06:05:33;;;;;;;;;0.00;0.00;;;;;6.72;64.99;98409.31;5034129;28;45569;-82
2021/11/27 06:07:58;;;;;;;;;1.75;0.00;;;;;6.72;65.32;98411.09;5023863;28;51246;-84
2021/11/27 06:10:24;;;;;;;;;0.00;0.00;;;;;6.74;64.96;98409.31;5047489;28;63158;-84
2021/11/27 06:12:49;;;;;;;;;0.00;0.00;;;;;6.68;64.84;98394.50;5025999;28;45489;-83
2021/11/27 06:15:15;;;;;;;;;2.00;1.00;;;;;6.72;65.13;98411.94;5037122;28;45436;-82
2021/11/27 06:17:40;;;;;;;;;0.00;0.00;;;;;6.72;65.04;98390.09;5018557;28;54105;-83
2021/11/27 06:20:06;;;;;;;;;0.00;0.00;;;;;6.77;65.25;98404.03;5022005;28;46390;-82
2021/11/27 06:22:31;;;;;;;;;1.00;0.00;;;;;6.74;64.95;98390.94;5018949;28;45764;-83
2021/11/27 06:24:57;;;;;;;;;1.00;0.00;;;;;6.81;64.52;98397.81;5037160;28;50529;-81
2021/11/27 06:27:22;;;;;;;;;0.00;0.00;;;;;6.86;65.12;98414.38;5019083;28;45510;-84
2021/11/27 06:29:49;;;;;;;;;4.25;0.00;;;;;6.88;65.01;98411.75;5043860;28;60266;-82
2021/11/27 06:32:16;;;;;;;;;3.00;0.00;;;;;6.78;65.12;98398.75;5041699;28;45452;-82
2021/11/27 06:34:41;;;;;;;;;0.00;0.00;;;;;6.83;65.61;98391.69;5019601;28;45397;-82
2021/11/27 06:37:07;;;;;;;;;1.00;0.00;;;;;6.88;65.52;98403.88;5023862;28;45302;-82
2021/11/27 06:39:32;;;;;;;;;2.00;1.00;;;;;6.87;65.83;98403.03;5029208;28;48183;-82
2021/11/27 06:41:57;;;;;;;;;2.00;0.00;;;;;6.85;67.52;98399.53;5047291;28;60482;-83
2021/11/27 06:44:23;;;;;;;;;5.50;0.50;;;;;6.83;69.32;98406.56;5027895;28;45685;-81
2021/11/27 06:46:48;;;;;;;;;0.00;0.00;;;;;6.76;68.75;98397.88;5050288;28;56576;-81
2021/11/27 06:49:14;;;;;;;;;0.25;0.00;;;;;6.75;73.05;98409.28;4984965;28;67738;-82
2021/11/27 06:51:41;;;;;;;;;0.00;0.00;;;;;6.70;74.86;98405.84;5025477;28;45479;-81
2021/11/27 06:54:06;;;;;;;;;1.25;0.00;;;;;6.60;74.44;98396.34;5047704;28;45538;-81
2021/11/27 06:56:31;;;;;;;;;1.00;0.00;;;;;6.52;74.52;98392.97;5040359;28;45345;-82
2021/11/27 06:58:57;;;;;;;;;1.75;0.00;;;;;6.49;71.24;98390.38;5036814;28;46344;-81
2021/11/27 07:01:22;;;;;;;;;1.75;0.00;;;;;6.48;70.15;98386.88;5017664;28;62159;-82
2021/11/27 07:03:47;;;;;;;;;0.00;0.00;;;;;6.38;69.80;98390.50;5036567;28;51591;-83
2021/11/27 07:06:13;;;;;;;;;0.00;0.00;;;;;6.38;69.35;98400.13;5006630;28;48592;-81
2021/11/27 07:08:38;;;;;;;;;0.00;0.00;;;;;6.35;70.47;98400.16;5017514;28;67264;-82
2021/11/27 07:11:04;;;;;;;;;0.00;0.00;;;;;6.36;69.51;98396.66;5036038;28;56376;-80
2021/11/27 07:13:29;;;;;;;;;0.75;0.00;;;;;6.40;69.77;98390.50;5002674;28;46849;-80
2021/11/27 07:15:54;;;;;;;;;1.25;1.00;;;;;6.43;69.49;98396.56;5035574;28;58851;-83
2021/11/27 07:18:20;;;;;;;;;0.00;0.00;;;;;6.41;69.24;98397.47;5017591;28;57425;-82
2021/11/27 07:20:45;;;;;;;;;2.00;0.00;;;;;6.47;69.59;98400.88;5020174;28;65238;-83
2021/11/27 07:23:11;;;;;;;;;4.00;0.00;;;;;6.43;69.54;98383.44;5027170;28;60669;-83
2021/11/27 07:25:37;;;;;;;;;0.00;0.00;;;;;6.49;69.06;98398.22;5029762;28;52592;-81
2021/11/27 07:28:03;;;;;;;;;1.00;1.00;;;;;6.48;69.13;98399.13;5024663;28;46597;-82
2021/11/27 07:30:29;;;;;;;;;0.75;0.00;;;;;6.51;69.06;98399.97;5021153;28;45447;-82
2021/11/27 07:32:54;;;;;;;;;1.25;0.00;;;;;6.51;68.71;98406.97;5043965;28;47181;-83
2021/11/27 07:35:19;;;;;;;;;0.00;0.00;;;;;6.53;68.98;98411.28;5034619;28;51476;-83
2021/11/27 07:37:45;;;;;;;;;0.00;0.00;;;;;6.49;74.81;98409.59;5017279;28;69501;-83
2021/11/27 07:40:10;;;;;;;;;0.25;0.25;;;;;6.50;75.81;98408.72;5004272;28;45357;-82
2021/11/27 07:42:36;;;;;;;;;0.00;0.00;;;;;6.48;69.31;98414.84;5049729;28;45499;-81
2021/11/27 07:45:01;;;;;;;;;0.00;0.00;;;;;6.42;69.83;98407.94;5030550;28;45436;-83
2021/11/27 07:47:27;;;;;;;;;1.00;0.00;;;;;6.43;69.46;98414.91;5001033;28;46532;-83
2021/11/27 07:49:52;;;;;;;;;0.00;0.00;;;;;6.37;69.22;98407.09;5037581;28;54766;-83
2021/11/27 07:52:21;;;;;;;;;2.00;0.00;;;;;6.37;69.60;98417.59;5024828;28;54398;-83
2021/11/27 07:54:47;;;;;;;;;1.00;1.00;;;;;6.28;69.55;98415.06;5035414;28;45265;-83
2021/11/27 07:57:12;;;;;;;;;0.00;0.00;;;;;6.35;69.64;98426.38;5018196;28;46400;-84
2021/11/27 07:59:37;;;;;;;;;0.00;0.00;;;;;6.28;70.07;98408.09;5021418;28;59215;-84
2021/11/27 08:02:03;;;;;;;;;1.00;1.00;;;;;6.32;69.68;98408.91;5023715;28;45717;-83
2021/11/27 08:04:28;;;;;;;;;0.00;0.00;;;;;6.32;69.13;98405.44;5029759;28;45764;-84
2021/11/27 08:06:54;;;;;;;;;0.00;0.00;;;;;6.38;69.29;98415.84;5050936;28;62320;-82
2021/11/27 08:09:19;;;;;;;;;0.25;0.00;;;;;6.36;69.28;98418.47;5042100;28;62801;-83
2021/11/27 08:11:45;;;;;;;;;0.50;0.00;;;;;6.38;69.33;98415.84;5038474;28;45328;-82
2021/11/27 08:14:10;;;;;;;;;0.00;0.00;;;;;6.33;69.35;98399.28;5015528;28;45757;-81
2021/11/27 08:16:35;;;;;;;;;0.00;0.00;;;;;6.40;69.45;98427.19;5018926;28;63929;-82
2021/11/27 08:19:01;;;;;;;;;0.00;0.00;;;;;6.39;69.61;98418.47;5037215;28;60585;-82
2021/11/27 08:21:26;;;;;;;;;1.00;0.00;;;;;6.40;69.24;98427.19;5039441;28;45749;-81
2021/11/27 08:23:51;;;;;;;;;0.00;0.00;;;;;6.38;69.49;98421.09;5039033;28;45448;-82
2021/11/27 08:26:18;;;;;;;;;1.50;0.00;;;;;6.32;69.15;98411.53;5038189;28;45953;-82
2021/11/27 08:28:43;;;;;;;;;2.00;0.00;;;;;6.39;69.23;98410.59;5008181;28;46284;-82
2021/11/27 08:31:08;;;;;;;;;0.75;0.00;;;;;6.39;69.25;98412.31;5017763;28;57567;-81
2021/11/27 08:33:34;;;;;;;;;0.75;0.00;;;;;6.30;68.99;98406.31;5038700;28;45540;-82
2021/11/27 08:36:00;;;;;;;;;3.25;0.00;;;;;6.28;69.22;98408.09;5019386;28;46537;-81
2021/11/27 08:38:27;;;;;;;;;0.00;0.00;;;;;6.19;69.45;98404.69;5034698;28;45437;-81
2021/11/27 08:40:52;;;;;;;;;2.00;0.00;;;;;6.30;69.76;98423.78;5049675;28;45479;-81
2021/11/27 08:43:18;;;;;;;;;0.00;0.00;;;;;6.27;69.54;98423.81;5012376;28;45303;-83
2021/11/27 08:45:45;;;;;;;;;4.00;0.00;;;;;6.25;69.84;98428.22;5034195;28;70139;-81
2021/11/27 08:48:10;;;;;;;;;0.00;0.00;;;;;6.14;69.44;98416.97;5044556;28;45409;-84
2021/11/27 08:50:36;;;;;;;;;0.00;0.00;;;;;6.15;69.67;98416.97;5029310;28;46238;-81
2021/11/27 08:53:01;;;;;;;;;0.00;0.00;;;;;6.13;69.84;98426.59;5127802;22;45553;-82
2021/11/27 08:55:27;;;;;;;;;0.00;0.00;;;;;6.08;70.18;98438.88;5018748;28;46722;-85
2021/11/27 08:57:53;;;;;;;;;0.00;0.00;;;;;6.06;69.95;98431.91;5007244;28;45549;-81
2021/11/27 09:00:18;;;;;;;;;1.00;0.00;;;;;6.06;69.98;98432.75;5026024;28;45495;-81
2021/11/27 09:02:43;;;;;;;;;1.00;0.00;;;;;6.05;70.37;98417.94;5028161;28;57571;-82
2021/11/27 09:05:09;;;;;;;;;1.00;0.00;;;;;6.13;70.28;98441.44;5009871;28;63678;-81
2021/11/27 09:07:34;;;;;;;;;1.00;0.00;;;;;6.16;70.19;98434.41;5012946;28;45572;-82
2021/11/27 09:10:00;;;;;;;;;0.50;0.00;;;;;6.22;70.26;98431.72;5006272;28;45611;-82
2021/11/27 09:12:26;;;;;;;;;0.50;0.00;;;;;6.30;70.31;98434.28;5023657;28;45741;-79
2021/11/27 09:14:51;;;;;;;;;0.00;0.00;;;;;6.37;70.16;98450.81;5020203;28;62115;-83
2021/11/27 09:17:18;;;;;;;;;0.00;0.00;;;;;6.37;69.96;98437.69;5023572;28;45388;-79
2021/11/27 09:19:44;;;;;;;;;0.00;0.00;;;;;6.43;69.57;98445.50;5004517;28;45495;-80
2021/11/27 09:22:10;;;;;;;;;0.00;0.00;;;;;6.50;69.86;98449.81;5021131;28;45612;-83
2021/11/27 09:24:35;;;;;;;;;0.50;0.50;;;;;6.61;69.92;98453.16;5010842;28;71370;-82
2021/11/27 09:27:01;;;;;;;;;0.25;0.25;;;;;6.67;69.67;98453.09;5021438;28;45436;-83
2021/11/27 09:29:26;;;;;;;;;0.00;0.00;;;;;6.73;69.55;98466.13;5024293;28;45445;-81
2021/11/27 09:31:51;;;;;;;;;3.00;0.00;;;;;6.75;69.32;98463.47;5009930;28;45552;-82
2021/11/27 09:34:20;;;;;;;;;0.00;0.00;;;;;6.74;69.42;98464.38;4998920;28;47167;-82
2021/11/27 09:36:46;;;;;;;;;0.00;0.00;;;;;6.73;69.58;98457.41;4999233;28;45536;-84
2021/11/27 09:39:13;;;;;;;;;0.00;0.00;;;;;6.79;69.57;98460.81;5025162;28;45492;-83
2021/11/27 09:41:42;;;;;;;;;0.00;0.00;;;;;6.88;69.18;98466.84;5002214;28;46007;-83
2021/11/27 09:44:08;;;;;;;;;0.00;0.00;;;;;6.84;69.37;98452.88;5011242;28;48705;-78
2021/11/27 09:46:35;;;;;;;;;1.50;0.00;;;;;6.90;69.11;98467.69;5037660;28;46609;-77
2021/11/27 09:49:08;;;;;;;;;0.00;0.00;;;;;7.02;69.26;98526.09;5038261;28;45528;-78
2021/11/27 09:51:34;;;;;;;;;0.00;0.00;;;;;7.11;68.87;98479.66;5025471;28;45701;-80
2021/11/27 09:54:00;;;;;;;;;0.00;0.00;;;;;7.15;68.72;98484.00;5025027;28;45556;-81
2021/11/27 09:56:25;;;;;;;;;0.00;0.00;;;;;7.20;68.56;98469.06;5022932;28;45846;-78
2021/11/27 09:58:51;;;;;;;;;0.00;0.00;;;;;7.29;68.01;98490.75;5035328;28;53849;-79
2021/11/27 10:01:18;;;;;;;;;0.25;0.00;;;;;7.37;68.21;98484.56;5004838;28;46560;-82
2021/11/27 10:06:41;;;;;;;;;0.00;0.00;;;;;7.51;68.14;98498.34;5007045;28;45525;-81
2021/11/27 10:09:09;;;;;;;;;0.00;0.00;;;;;7.51;67.68;98495.72;5002607;28;45428;-79
2021/11/27 10:11:35;;;;;;;;;1.00;0.00;;;;;7.50;67.65;98494.84;5003707;28;45472;-80
2021/11/27 10:14:00;;;;;;;;;0.00;0.00;;;;;7.49;67.90;98502.75;5019003;28;45582;-79
2021/11/27 10:16:26;;;;;;;;;0.00;0.00;;;;;7.49;68.08;98494.88;5019664;28;45473;-80
2021/11/27 10:19:08;;;;;;;;;1.00;0.00;;;;;7.54;68.06;98498.31;5019270;28;45573;-81
2021/11/27 10:21:34;;;;;;;;;0.75;0.00;;;;;7.65;67.98;98499.03;5019390;28;45377;-80
2021/11/27 10:24:00;;;;;;;;;0.50;0.50;;;;;7.67;67.83;98504.25;5036263;28;45763;-81
2021/11/27 10:26:34;;;;;;;;;1.00;1.00;;;;;7.64;68.08;98501.69;5002511;28;46198;-79
2021/11/27 10:29:18;;;;;;;;;0.00;0.00;;;;;7.69;67.96;98508.59;5003432;28;45470;-80
2021/11/27 10:31:45;;;;;;;;;2.00;0.00;;;;;7.69;68.00;98508.59;5037150;28;45564;-80
2021/11/27 10:34:18;;;;;;;;;0.00;0.00;;;;;7.67;67.88;98497.25;5001999;28;48855;-80
2021/11/27 10:36:44;;;;;;;;;0.50;0.00;;;;;7.74;67.66;98513.78;5003264;28;45473;-81
2021/11/27 10:39:09;;;;;;;;;1.00;1.00;;;;;7.72;67.83;98505.91;5018920;28;45587;-80
2021/11/27 10:41:36;;;;;;;;;1.00;1.00;;;;;7.73;68.04;98506.81;5019536;28;45548;-79
2021/11/27 10:44:04;;;;;;;;;0.00;0.00;;;;;7.64;68.10;98488.56;5019653;28;45738;-81
2021/11/27 10:46:31;;;;;;;;;0.50;0.50;;;;;7.65;67.97;98504.28;4986266;28;45499;-81
2021/11/27 10:48:57;;;;;;;;;1.00;1.00;;;;;7.60;68.10;98493.84;5002761;28;45444;-79
2021/11/27 10:51:22;;;;;;;;;0.50;0.50;;;;;7.63;68.28;98497.31;4985863;28;45429;-79
2021/11/27 10:53:52;;;;;;;;;3.00;0.00;;;;;7.67;68.01;98499.00;5002134;28;47108;-79
2021/11/27 10:56:18;;;;;;;;;0.75;0.00;;;;;7.74;68.21;98504.16;5001955;28;45619;-81
2021/11/27 10:59:02;;;;;;;;;1.00;1.00;;;;;7.80;67.93;98504.03;5002420;28;47499;-80
2021/11/27 11:01:28;;;;;;;;;0.00;0.00;;;;;7.88;67.86;98496.94;5003101;28;45343;-79
2021/11/27 11:03:53;;;;;;;;;0.75;0.75;;;;;7.91;67.76;98479.38;5018098;28;48041;-80
2021/11/27 11:06:22;;;;;;;;;0.75;0.75;;;;;8.05;67.83;98501.91;5001933;28;46160;-80
2021/11/27 11:08:54;;;;;;;;;0.00;0.00;;;;;8.12;67.25;98502.66;5018772;28;45484;-81
2021/11/27 11:11:23;;;;;;;;;0.00;0.00;;;;;8.19;67.25;98503.44;5002777;28;45448;-79
2021/11/27 11:13:52;;;;;;;;;1.33;1.00;;;;;8.26;67.28;98507.72;5034941;28;45701;-80
2021/11/27 11:16:18;;;;;;;;;1.00;1.00;;;;;8.31;67.40;98496.22;5002376;28;46258;-80
2021/11/27 11:18:45;;;;;;;;;0.00;0.00;;;;;8.43;66.69;98510.06;5018844;28;45416;-80
2021/11/27 11:21:10;;;;;;;;;1.00;1.00;;;;;8.41;66.97;98496.94;5002092;28;45367;-80
2021/11/27 11:23:37;;;;;;;;;1.33;0.00;;;;;8.47;66.82;98493.31;5001392;28;61988;-80
2021/11/27 11:26:13;;;;;;;;;1.00;1.00;;;;;8.58;66.49;98497.50;5002031;28;45620;-80
2021/11/27 11:28:41;;;;;;;;;1.50;1.00;;;;;8.71;66.22;98506.03;5018872;28;45357;-80
2021/11/27 11:31:09;;;;;;;;;0.00;0.00;;;;;8.75;66.68;98512.13;4985041;28;45462;-81
2021/11/27 11:33:35;;;;;;;;;0.00;0.00;;;;;8.76;66.57;98509.44;5018481;28;48491;-80
2021/11/27 11:36:02;;;;;;;;;0.00;0.00;;;;;8.78;66.54;98517.28;5021419;28;45592;-80
2021/11/27 11:38:27;;;;;;;;;1.00;1.00;;;;;8.75;66.59;98514.75;5038702;28;45423;-80
2021/11/27 11:40:53;;;;;;;;;0.33;0.00;;;;;8.74;66.23;98513.00;5021663;28;46098;-81